sensor_id;sensor_type;location;lat;lon;timestamp;P1;durP1;ratioP1;P2;durP2;ratioP2
5845;SDS011;2949;50.778;7.094;2024-01-25T00:01:08;40.60;;;6.23;;
5845;SDS011;2949;50.778;7.094;2024-01-25T00:03:34;60.93;;;6.73;;
5845;SDS011;2949;50.778;7.094;2024-01-25T00:06:00;38.27;;;5.57;;
5845;SDS011;2949;50.778;7.094;2024-01-25T00:08:25;49.70;;;5.73;;
5845;SDS011;2949;50.778;7.094;2024-01-25T00:10:51;40.20;;;6.27;;
5845;SDS011;2949;50.778;7.094;2024-01-25T00:13:16;37.07;;;5.77;;
5845;SDS011;2949;50.778;7.094;2024-01-25T00:15:42;47.47;;;5.70;;
5845;SDS011;2949;50.778;7.094;2024-01-25T00:18:08;63.10;;;6.77;;
5845;SDS011;2949;50.778;7.094;2024-01-25T00:20:33;51.07;;;6.37;;
5845;SDS011;2949;50.778;7.094;2024-01-25T00:22:59;49.40;;;6.90;;
5845;SDS011;2949;50.778;7.094;2024-01-25T00:25:25;42.80;;;5.80;;
5845;SDS011;2949;50.778;7.094;2024-01-25T00:27:50;36.93;;;5.43;;
5845;SDS011;2949;50.778;7.094;2024-01-25T00:30:16;31.93;;;5.00;;
5845;SDS011;2949;50.778;7.094;2024-01-25T00:32:41;64.10;;;7.30;;
5845;SDS011;2949;50.778;7.094;2024-01-25T00:35:08;43.33;;;5.73;;
5845;SDS011;2949;50.778;7.094;2024-01-25T00:37:35;32.93;;;6.03;;
5845;SDS011;2949;50.778;7.094;2024-01-25T00:40:02;45.27;;;6.03;;
5845;SDS011;2949;50.778;7.094;2024-01-25T00:42:28;48.50;;;5.93;;
5845;SDS011;2949;50.778;7.094;2024-01-25T00:44:55;37.47;;;5.20;;
5845;SDS011;2949;50.778;7.094;2024-01-25T00:47:21;40.23;;;7.00;;
5845;SDS011;2949;50.778;7.094;2024-01-25T00:49:47;51.60;;;6.33;;
5845;SDS011;2949;50.778;7.094;2024-01-25T00:52:13;47.53;;;8.33;;
5845;SDS011;2949;50.778;7.094;2024-01-25T00:54:39;51.27;;;6.80;;
5845;SDS011;2949;50.778;7.094;2024-01-25T00:57:05;38.60;;;5.53;;
5845;SDS011;2949;50.778;7.094;2024-01-25T00:59:32;34.60;;;6.23;;
5845;SDS011;2949;50.778;7.094;2024-01-25T01:01:58;41.60;;;6.07;;
5845;SDS011;2949;50.778;7.094;2024-01-25T01:04:25;40.80;;;5.47;;
5845;SDS011;2949;50.778;7.094;2024-01-25T01:06:51;47.67;;;7.87;;
5845;SDS011;2949;50.778;7.094;2024-01-25T01:09:17;46.40;;;6.37;;
5845;SDS011;2949;50.778;7.094;2024-01-25T01:11:43;33.53;;;5.13;;
5845;SDS011;2949;50.778;7.094;2024-01-25T01:14:09;46.97;;;6.73;;
5845;SDS011;2949;50.778;7.094;2024-01-25T01:16:34;44.93;;;5.60;;
5845;SDS011;2949;50.778;7.094;2024-01-25T01:19:01;57.40;;;7.60;;
5845;SDS011;2949;50.778;7.094;2024-01-25T01:21:31;37.67;;;6.40;;
5845;SDS011;2949;50.778;7.094;2024-01-25T01:24:00;38.03;;;6.30;;
5845;SDS011;2949;50.778;7.094;2024-01-25T01:26:26;38.37;;;6.50;;
5845;SDS011;2949;50.778;7.094;2024-01-25T01:28:52;46.57;;;6.50;;
5845;SDS011;2949;50.778;7.094;2024-01-25T01:31:17;29.63;;;4.80;;
5845;SDS011;2949;50.778;7.094;2024-01-25T01:33:43;43.30;;;6.17;;
5845;SDS011;2949;50.778;7.094;2024-01-25T01:36:08;41.63;;;5.33;;
5845;SDS011;2949;50.778;7.094;2024-01-25T01:38:34;44.07;;;6.77;;
5845;SDS011;2949;50.778;7.094;2024-01-25T01:41:00;51.57;;;6.60;;
5845;SDS011;2949;50.778;7.094;2024-01-25T01:43:25;45.93;;;7.77;;
5845;SDS011;2949;50.778;7.094;2024-01-25T01:45:51;55.17;;;6.03;;
5845;SDS011;2949;50.778;7.094;2024-01-25T01:48:18;46.23;;;6.23;;
5845;SDS011;2949;50.778;7.094;2024-01-25T01:50:44;55.83;;;6.53;;
5845;SDS011;2949;50.778;7.094;2024-01-25T01:53:10;50.47;;;5.77;;
5845;SDS011;2949;50.778;7.094;2024-01-25T01:55:37;52.53;;;7.93;;
5845;SDS011;2949;50.778;7.094;2024-01-25T01:58:06;50.77;;;6.53;;
5845;SDS011;2949;50.778;7.094;2024-01-25T02:00:32;62.13;;;8.40;;
5845;SDS011;2949;50.778;7.094;2024-01-25T02:02:59;44.87;;;5.57;;
5845;SDS011;2949;50.778;7.094;2024-01-25T02:05:25;38.57;;;5.83;;
5845;SDS011;2949;50.778;7.094;2024-01-25T02:07:50;50.47;;;5.83;;
5845;SDS011;2949;50.778;7.094;2024-01-25T02:10:17;46.33;;;7.83;;
5845;SDS011;2949;50.778;7.094;2024-01-25T02:12:43;45.10;;;6.40;;
5845;SDS011;2949;50.778;7.094;2024-01-25T02:15:09;46.07;;;6.20;;
5845;SDS011;2949;50.778;7.094;2024-01-25T02:17:34;48.70;;;6.23;;
5845;SDS011;2949;50.778;7.094;2024-01-25T02:20:00;52.80;;;8.10;;
5845;SDS011;2949;50.778;7.094;2024-01-25T02:22:28;49.70;;;6.77;;
5845;SDS011;2949;50.778;7.094;2024-01-25T02:24:54;57.60;;;8.20;;
5845;SDS011;2949;50.778;7.094;2024-01-25T02:27:19;44.43;;;6.23;;
5845;SDS011;2949;50.778;7.094;2024-01-25T02:29:45;46.97;;;6.80;;
5845;SDS011;2949;50.778;7.094;2024-01-25T02:32:11;42.30;;;6.80;;
5845;SDS011;2949;50.778;7.094;2024-01-25T02:34:36;54.73;;;7.07;;
5845;SDS011;2949;50.778;7.094;2024-01-25T02:37:02;44.20;;;6.53;;
5845;SDS011;2949;50.778;7.094;2024-01-25T02:39:28;47.37;;;6.27;;
5845;SDS011;2949;50.778;7.094;2024-01-25T02:41:54;54.97;;;6.63;;
5845;SDS011;2949;50.778;7.094;2024-01-25T02:44:19;41.60;;;6.60;;
5845;SDS011;2949;50.778;7.094;2024-01-25T02:46:45;52.87;;;6.60;;
5845;SDS011;2949;50.778;7.094;2024-01-25T02:49:11;48.93;;;6.63;;
5845;SDS011;2949;50.778;7.094;2024-01-25T02:51:37;69.93;;;8.57;;
5845;SDS011;2949;50.778;7.094;2024-01-25T02:54:03;56.90;;;7.50;;
5845;SDS011;2949;50.778;7.094;2024-01-25T02:56:29;45.87;;;6.40;;
5845;SDS011;2949;50.778;7.094;2024-01-25T02:59:00;53.43;;;7.33;;
5845;SDS011;2949;50.778;7.094;2024-01-25T03:01:36;63.07;;;7.30;;
5845;SDS011;2949;50.778;7.094;2024-01-25T03:04:06;57.00;;;7.00;;
5845;SDS011;2949;50.778;7.094;2024-01-25T03:06:32;55.20;;;8.07;;
5845;SDS011;2949;50.778;7.094;2024-01-25T03:08:58;55.40;;;6.90;;
5845;SDS011;2949;50.778;7.094;2024-01-25T03:11:23;54.40;;;7.60;;
5845;SDS011;2949;50.778;7.094;2024-01-25T03:13:49;55.50;;;7.20;;
5845;SDS011;2949;50.778;7.094;2024-01-25T03:16:14;50.67;;;7.00;;
5845;SDS011;2949;50.778;7.094;2024-01-25T03:18:40;64.70;;;7.00;;
5845;SDS011;2949;50.778;7.094;2024-01-25T03:21:07;49.17;;;7.27;;
5845;SDS011;2949;50.778;7.094;2024-01-25T03:23:33;59.93;;;8.23;;
5845;SDS011;2949;50.778;7.094;2024-01-25T03:25:58;67.37;;;7.97;;
5845;SDS011;2949;50.778;7.094;2024-01-25T03:28:26;65.20;;;8.23;;
5845;SDS011;2949;50.778;7.094;2024-01-25T03:30:52;72.73;;;7.10;;
5845;SDS011;2949;50.778;7.094;2024-01-25T03:33:17;73.87;;;7.83;;
5845;SDS011;2949;50.778;7.094;2024-01-25T03:35:43;48.37;;;8.43;;
5845;SDS011;2949;50.778;7.094;2024-01-25T03:38:09;64.03;;;7.80;;
5845;SDS011;2949;50.778;7.094;2024-01-25T03:40:34;48.40;;;6.67;;
5845;SDS011;2949;50.778;7.094;2024-01-25T03:43:00;75.00;;;9.77;;
5845;SDS011;2949;50.778;7.094;2024-01-25T03:45:26;62.00;;;7.30;;
5845;SDS011;2949;50.778;7.094;2024-01-25T03:47:51;60.47;;;7.97;;
5845;SDS011;2949;50.778;7.094;2024-01-25T03:50:17;72.30;;;8.50;;
5845;SDS011;2949;50.778;7.094;2024-01-25T03:52:42;60.23;;;6.60;;
5845;SDS011;2949;50.778;7.094;2024-01-25T03:55:08;73.23;;;8.23;;
5845;SDS011;2949;50.778;7.094;2024-01-25T03:57:34;91.07;;;9.53;;
5845;SDS011;2949;50.778;7.094;2024-01-25T04:00:01;72.23;;;8.30;;
5845;SDS011;2949;50.778;7.094;2024-01-25T04:02:28;64.27;;;9.17;;
5845;SDS011;2949;50.778;7.094;2024-01-25T04:04:53;98.53;;;10.13;;
5845;SDS011;2949;50.778;7.094;2024-01-25T04:07:19;73.23;;;9.07;;
5845;SDS011;2949;50.778;7.094;2024-01-25T04:09:45;86.67;;;8.73;;
5845;SDS011;2949;50.778;7.094;2024-01-25T04:12:11;70.73;;;8.27;;
5845;SDS011;2949;50.778;7.094;2024-01-25T04:14:36;71.03;;;8.40;;
5845;SDS011;2949;50.778;7.094;2024-01-25T04:17:02;85.73;;;8.57;;
5845;SDS011;2949;50.778;7.094;2024-01-25T04:19:28;87.73;;;8.70;;
5845;SDS011;2949;50.778;7.094;2024-01-25T04:21:53;90.97;;;9.93;;
5845;SDS011;2949;50.778;7.094;2024-01-25T04:24:19;80.47;;;9.03;;
5845;SDS011;2949;50.778;7.094;2024-01-25T04:26:45;72.13;;;8.70;;
5845;SDS011;2949;50.778;7.094;2024-01-25T04:29:11;65.43;;;8.90;;
5845;SDS011;2949;50.778;7.094;2024-01-25T04:31:42;59.63;;;9.43;;
5845;SDS011;2949;50.778;7.094;2024-01-25T04:34:09;73.90;;;9.20;;
5845;SDS011;2949;50.778;7.094;2024-01-25T04:36:34;64.27;;;9.50;;
5845;SDS011;2949;50.778;7.094;2024-01-25T04:39:00;60.30;;;8.83;;
5845;SDS011;2949;50.778;7.094;2024-01-25T04:41:25;83.40;;;9.20;;
5845;SDS011;2949;50.778;7.094;2024-01-25T04:43:51;68.63;;;8.00;;
5845;SDS011;2949;50.778;7.094;2024-01-25T04:46:17;65.50;;;10.40;;
5845;SDS011;2949;50.778;7.094;2024-01-25T04:48:42;49.47;;;8.70;;
5845;SDS011;2949;50.778;7.094;2024-01-25T04:51:14;63.27;;;8.17;;
5845;SDS011;2949;50.778;7.094;2024-01-25T04:53:40;51.90;;;8.37;;
5845;SDS011;2949;50.778;7.094;2024-01-25T04:56:06;70.77;;;9.30;;
5845;SDS011;2949;50.778;7.094;2024-01-25T04:58:32;74.57;;;11.37;;
5845;SDS011;2949;50.778;7.094;2024-01-25T05:00:57;72.63;;;9.13;;
5845;SDS011;2949;50.778;7.094;2024-01-25T05:03:23;106.47;;;10.53;;
5845;SDS011;2949;50.778;7.094;2024-01-25T05:05:49;83.63;;;10.00;;
5845;SDS011;2949;50.778;7.094;2024-01-25T05:08:14;54.60;;;8.43;;
5845;SDS011;2949;50.778;7.094;2024-01-25T05:10:40;77.77;;;9.27;;
5845;SDS011;2949;50.778;7.094;2024-01-25T05:13:06;71.33;;;9.03;;
5845;SDS011;2949;50.778;7.094;2024-01-25T05:15:32;80.60;;;8.70;;
5845;SDS011;2949;50.778;7.094;2024-01-25T05:17:58;59.43;;;11.50;;
5845;SDS011;2949;50.778;7.094;2024-01-25T05:20:24;80.20;;;9.47;;
5845;SDS011;2949;50.778;7.094;2024-01-25T05:25:23;81.77;;;12.23;;
5845;SDS011;2949;50.778;7.094;2024-01-25T05:27:49;92.33;;;10.40;;
5845;SDS011;2949;50.778;7.094;2024-01-25T05:30:15;53.87;;;9.33;;
5845;SDS011;2949;50.778;7.094;2024-01-25T05:32:42;75.10;;;8.50;;
5845;SDS011;2949;50.778;7.094;2024-01-25T05:35:08;70.70;;;8.83;;
5845;SDS011;2949;50.778;7.094;2024-01-25T05:37:34;61.93;;;8.77;;
5845;SDS011;2949;50.778;7.094;2024-01-25T05:40:00;69.67;;;9.83;;
5845;SDS011;2949;50.778;7.094;2024-01-25T05:42:25;84.73;;;8.80;;
5845;SDS011;2949;50.778;7.094;2024-01-25T05:44:51;82.30;;;7.97;;
5845;SDS011;2949;50.778;7.094;2024-01-25T05:47:17;68.97;;;8.93;;
5845;SDS011;2949;50.778;7.094;2024-01-25T05:49:42;52.07;;;8.93;;
5845;SDS011;2949;50.778;7.094;2024-01-25T05:52:08;59.63;;;9.00;;
5845;SDS011;2949;50.778;7.094;2024-01-25T05:54:34;64.40;;;8.83;;
5845;SDS011;2949;50.778;7.094;2024-01-25T05:56:59;67.33;;;9.30;;
5845;SDS011;2949;50.778;7.094;2024-01-25T05:59:25;75.10;;;8.27;;
5845;SDS011;2949;50.778;7.094;2024-01-25T06:01:51;86.60;;;11.30;;
5845;SDS011;2949;50.778;7.094;2024-01-25T06:04:16;83.57;;;8.77;;
5845;SDS011;2949;50.778;7.094;2024-01-25T06:06:42;82.27;;;9.00;;
5845;SDS011;2949;50.778;7.094;2024-01-25T06:09:08;90.23;;;8.87;;
5845;SDS011;2949;50.778;7.094;2024-01-25T06:11:33;51.73;;;9.13;;
5845;SDS011;2949;50.778;7.094;2024-01-25T06:14:01;100.37;;;9.93;;
5845;SDS011;2949;50.778;7.094;2024-01-25T06:16:26;69.33;;;9.50;;
5845;SDS011;2949;50.778;7.094;2024-01-25T06:18:52;87.97;;;9.37;;
5845;SDS011;2949;50.778;7.094;2024-01-25T06:21:18;85.20;;;9.60;;
5845;SDS011;2949;50.778;7.094;2024-01-25T06:23:43;85.93;;;10.97;;
5845;SDS011;2949;50.778;7.094;2024-01-25T06:26:09;80.57;;;9.23;;
5845;SDS011;2949;50.778;7.094;2024-01-25T06:28:34;104.97;;;11.83;;
5845;SDS011;2949;50.778;7.094;2024-01-25T06:31:01;81.10;;;10.53;;
5845;SDS011;2949;50.778;7.094;2024-01-25T06:33:27;71.87;;;10.10;;
5845;SDS011;2949;50.778;7.094;2024-01-25T06:35:53;74.27;;;10.07;;
5845;SDS011;2949;50.778;7.094;2024-01-25T06:38:20;109.20;;;9.30;;
5845;SDS011;2949;50.778;7.094;2024-01-25T06:40:46;94.27;;;9.67;;
5845;SDS011;2949;50.778;7.094;2024-01-25T06:43:11;80.83;;;9.10;;
5845;SDS011;2949;50.778;7.094;2024-01-25T06:45:37;76.83;;;10.27;;
5845;SDS011;2949;50.778;7.094;2024-01-25T06:48:05;103.27;;;10.47;;
5845;SDS011;2949;50.778;7.094;2024-01-25T06:50:32;95.67;;;9.73;;
5845;SDS011;2949;50.778;7.094;2024-01-25T06:52:58;69.33;;;10.10;;
5845;SDS011;2949;50.778;7.094;2024-01-25T06:55:24;68.10;;;9.33;;
5845;SDS011;2949;50.778;7.094;2024-01-25T06:57:49;100.40;;;10.07;;
5845;SDS011;2949;50.778;7.094;2024-01-25T07:00:15;86.53;;;10.77;;
5845;SDS011;2949;50.778;7.094;2024-01-25T07:02:41;95.90;;;9.67;;
5845;SDS011;2949;50.778;7.094;2024-01-25T07:05:08;88.90;;;10.27;;
5845;SDS011;2949;50.778;7.094;2024-01-25T07:07:34;82.70;;;9.73;;
5845;SDS011;2949;50.778;7.094;2024-01-25T07:10:00;77.60;;;9.70;;
5845;SDS011;2949;50.778;7.094;2024-01-25T07:12:25;100.47;;;11.90;;
5845;SDS011;2949;50.778;7.094;2024-01-25T07:14:52;95.63;;;10.13;;
5845;SDS011;2949;50.778;7.094;2024-01-25T07:17:18;54.87;;;9.00;;
5845;SDS011;2949;50.778;7.094;2024-01-25T07:19:43;78.07;;;10.50;;
5845;SDS011;2949;50.778;7.094;2024-01-25T07:22:09;93.17;;;9.03;;
5845;SDS011;2949;50.778;7.094;2024-01-25T07:24:36;59.87;;;9.93;;
5845;SDS011;2949;50.778;7.094;2024-01-25T07:27:02;88.13;;;9.67;;
5845;SDS011;2949;50.778;7.094;2024-01-25T07:29:28;90.23;;;9.27;;
5845;SDS011;2949;50.778;7.094;2024-01-25T07:31:54;77.17;;;9.30;;
5845;SDS011;2949;50.778;7.094;2024-01-25T07:34:19;76.93;;;10.20;;
5845;SDS011;2949;50.778;7.094;2024-01-25T07:36:45;78.97;;;10.37;;
5845;SDS011;2949;50.778;7.094;2024-01-25T07:39:10;102.60;;;11.00;;
5845;SDS011;2949;50.778;7.094;2024-01-25T07:41:36;86.43;;;10.50;;
5845;SDS011;2949;50.778;7.094;2024-01-25T07:44:02;68.77;;;9.20;;
5845;SDS011;2949;50.778;7.094;2024-01-25T07:46:28;62.47;;;10.60;;
5845;SDS011;2949;50.778;7.094;2024-01-25T07:48:54;91.23;;;12.57;;
5845;SDS011;2949;50.778;7.094;2024-01-25T07:51:19;84.67;;;12.67;;
5845;SDS011;2949;50.778;7.094;2024-01-25T07:53:45;102.67;;;12.60;;
5845;SDS011;2949;50.778;7.094;2024-01-25T07:56:11;93.90;;;11.47;;
5845;SDS011;2949;50.778;7.094;2024-01-25T07:58:37;77.27;;;11.40;;
5845;SDS011;2949;50.778;7.094;2024-01-25T08:01:05;59.73;;;10.67;;
5845;SDS011;2949;50.778;7.094;2024-01-25T08:03:32;63.93;;;11.73;;
5845;SDS011;2949;50.778;7.094;2024-01-25T08:06:01;77.63;;;10.50;;
5845;SDS011;2949;50.778;7.094;2024-01-25T08:08:27;73.47;;;10.67;;
5845;SDS011;2949;50.778;7.094;2024-01-25T08:10:53;61.87;;;10.47;;
5845;SDS011;2949;50.778;7.094;2024-01-25T08:13:19;62.13;;;11.33;;
5845;SDS011;2949;50.778;7.094;2024-01-25T08:15:45;65.63;;;10.30;;
5845;SDS011;2949;50.778;7.094;2024-01-25T08:18:10;58.13;;;10.37;;
5845;SDS011;2949;50.778;7.094;2024-01-25T08:20:36;72.17;;;9.60;;
5845;SDS011;2949;50.778;7.094;2024-01-25T08:23:04;61.53;;;10.00;;
5845;SDS011;2949;50.778;7.094;2024-01-25T08:25:32;47.93;;;9.23;;
5845;SDS011;2949;50.778;7.094;2024-01-25T08:27:58;58.27;;;9.30;;
5845;SDS011;2949;50.778;7.094;2024-01-25T08:30:24;51.60;;;9.60;;
5845;SDS011;2949;50.778;7.094;2024-01-25T08:32:49;34.50;;;7.33;;
5845;SDS011;2949;50.778;7.094;2024-01-25T08:35:16;39.17;;;8.00;;
5845;SDS011;2949;50.778;7.094;2024-01-25T08:37:42;29.47;;;6.47;;
5845;SDS011;2949;50.778;7.094;2024-01-25T08:40:08;31.03;;;7.07;;
5845;SDS011;2949;50.778;7.094;2024-01-25T08:42:34;33.07;;;5.57;;
5845;SDS011;2949;50.778;7.094;2024-01-25T08:45:00;24.13;;;5.87;;
5845;SDS011;2949;50.778;7.094;2024-01-25T08:47:27;37.07;;;6.50;;
5845;SDS011;2949;50.778;7.094;2024-01-25T08:49:52;28.10;;;6.00;;
5845;SDS011;2949;50.778;7.094;2024-01-25T08:52:18;33.53;;;6.57;;
5845;SDS011;2949;50.778;7.094;2024-01-25T08:54:44;35.83;;;6.30;;
5845;SDS011;2949;50.778;7.094;2024-01-25T08:57:09;47.87;;;7.67;;
5845;SDS011;2949;50.778;7.094;2024-01-25T08:59:35;20.67;;;4.80;;
5845;SDS011;2949;50.778;7.094;2024-01-25T09:02:03;29.60;;;5.50;;
5845;SDS011;2949;50.778;7.094;2024-01-25T09:04:30;21.90;;;4.50;;
5845;SDS011;2949;50.778;7.094;2024-01-25T09:06:57;31.57;;;6.57;;
5845;SDS011;2949;50.778;7.094;2024-01-25T09:09:23;30.10;;;5.80;;
5845;SDS011;2949;50.778;7.094;2024-01-25T09:11:49;29.10;;;6.10;;
5845;SDS011;2949;50.778;7.094;2024-01-25T09:14:14;28.73;;;5.23;;
5845;SDS011;2949;50.778;7.094;2024-01-25T09:16:40;26.20;;;5.27;;
5845;SDS011;2949;50.778;7.094;2024-01-25T09:19:06;31.43;;;5.87;;
5845;SDS011;2949;50.778;7.094;2024-01-25T09:21:32;24.87;;;5.37;;
5845;SDS011;2949;50.778;7.094;2024-01-25T09:23:57;22.60;;;4.60;;
5845;SDS011;2949;50.778;7.094;2024-01-25T09:26:24;25.17;;;4.93;;
5845;SDS011;2949;50.778;7.094;2024-01-25T09:28:50;27.67;;;5.00;;
5845;SDS011;2949;50.778;7.094;2024-01-25T09:31:16;32.97;;;6.60;;
5845;SDS011;2949;50.778;7.094;2024-01-25T09:33:41;27.53;;;5.90;;
5845;SDS011;2949;50.778;7.094;2024-01-25T09:36:07;32.00;;;6.60;;
5845;SDS011;2949;50.778;7.094;2024-01-25T09:38:33;22.33;;;4.40;;
5845;SDS011;2949;50.778;7.094;2024-01-25T09:40:59;36.97;;;6.90;;
5845;SDS011;2949;50.778;7.094;2024-01-25T09:43:26;25.10;;;5.33;;
5845;SDS011;2949;50.778;7.094;2024-01-25T09:45:55;25.80;;;6.13;;
5845;SDS011;2949;50.778;7.094;2024-01-25T09:48:21;22.17;;;6.20;;
5845;SDS011;2949;50.778;7.094;2024-01-25T09:50:47;28.53;;;6.70;;
5845;SDS011;2949;50.778;7.094;2024-01-25T09:53:22;32.23;;;6.70;;
5845;SDS011;2949;50.778;7.094;2024-01-25T09:55:58;33.10;;;6.33;;
5845;SDS011;2949;50.778;7.094;2024-01-25T09:58:33;33.00;;;5.40;;
5845;SDS011;2949;50.778;7.094;2024-01-25T10:01:12;28.43;;;6.20;;
5845;SDS011;2949;50.778;7.094;2024-01-25T10:03:43;32.10;;;8.00;;
5845;SDS011;2949;50.778;7.094;2024-01-25T10:06:12;26.97;;;6.23;;
5845;SDS011;2949;50.778;7.094;2024-01-25T10:08:39;36.03;;;6.13;;
5845;SDS011;2949;50.778;7.094;2024-01-25T10:11:05;40.87;;;8.50;;
5845;SDS011;2949;50.778;7.094;2024-01-25T10:13:31;44.97;;;6.00;;
5845;SDS011;2949;50.778;7.094;2024-01-25T10:15:57;35.37;;;6.83;;
5845;SDS011;2949;50.778;7.094;2024-01-25T10:18:25;30.03;;;6.00;;
5845;SDS011;2949;50.778;7.094;2024-01-25T10:20:54;36.67;;;7.10;;
5845;SDS011;2949;50.778;7.094;2024-01-25T10:23:20;28.67;;;6.17;;
5845;SDS011;2949;50.778;7.094;2024-01-25T10:25:47;35.73;;;6.90;;
5845;SDS011;2949;50.778;7.094;2024-01-25T10:28:13;35.87;;;7.70;;
5845;SDS011;2949;50.778;7.094;2024-01-25T10:30:38;31.10;;;6.47;;
5845;SDS011;2949;50.778;7.094;2024-01-25T10:33:04;38.53;;;5.87;;
5845;SDS011;2949;50.778;7.094;2024-01-25T10:35:31;25.50;;;6.50;;
5845;SDS011;2949;50.778;7.094;2024-01-25T10:37:57;28.13;;;4.90;;
5845;SDS011;2949;50.778;7.094;2024-01-25T10:40:23;22.47;;;4.87;;
5845;SDS011;2949;50.778;7.094;2024-01-25T10:42:49;29.33;;;6.70;;
5845;SDS011;2949;50.778;7.094;2024-01-25T10:45:16;35.47;;;5.53;;
5845;SDS011;2949;50.778;7.094;2024-01-25T10:47:41;20.50;;;4.60;;
5845;SDS011;2949;50.778;7.094;2024-01-25T10:50:09;29.70;;;5.57;;
5845;SDS011;2949;50.778;7.094;2024-01-25T10:52:38;31.10;;;6.03;;
5845;SDS011;2949;50.778;7.094;2024-01-25T10:55:05;20.33;;;5.07;;
5845;SDS011;2949;50.778;7.094;2024-01-25T10:57:36;34.97;;;6.73;;
5845;SDS011;2949;50.778;7.094;2024-01-25T11:00:05;20.10;;;4.87;;
5845;SDS011;2949;50.778;7.094;2024-01-25T11:02:38;23.77;;;4.73;;
5845;SDS011;2949;50.778;7.094;2024-01-25T11:05:16;40.50;;;5.70;;
5845;SDS011;2949;50.778;7.094;2024-01-25T11:10:14;37.40;;;6.87;;
5845;SDS011;2949;50.778;7.094;2024-01-25T11:13:03;22.13;;;5.00;;
5845;SDS011;2949;50.778;7.094;2024-01-25T11:15:31;28.87;;;5.90;;
5845;SDS011;2949;50.778;7.094;2024-01-25T11:17:58;22.83;;;7.00;;
5845;SDS011;2949;50.778;7.094;2024-01-25T11:20:25;32.33;;;6.43;;
5845;SDS011;2949;50.778;7.094;2024-01-25T11:23:00;25.27;;;5.13;;
5845;SDS011;2949;50.778;7.094;2024-01-25T11:25:30;34.40;;;5.50;;
5845;SDS011;2949;50.778;7.094;2024-01-25T11:27:58;29.10;;;6.20;;
5845;SDS011;2949;50.778;7.094;2024-01-25T11:30:25;34.87;;;5.83;;
5845;SDS011;2949;50.778;7.094;2024-01-25T11:32:52;37.20;;;4.97;;
5845;SDS011;2949;50.778;7.094;2024-01-25T11:35:17;45.77;;;5.97;;
5845;SDS011;2949;50.778;7.094;2024-01-25T11:37:44;30.40;;;5.43;;
5845;SDS011;2949;50.778;7.094;2024-01-25T11:40:14;31.90;;;5.77;;
5845;SDS011;2949;50.778;7.094;2024-01-25T11:42:42;34.67;;;6.53;;
5845;SDS011;2949;50.778;7.094;2024-01-25T11:45:09;22.90;;;6.37;;
5845;SDS011;2949;50.778;7.094;2024-01-25T11:47:36;35.47;;;5.13;;
5845;SDS011;2949;50.778;7.094;2024-01-25T11:50:03;23.10;;;5.37;;
5845;SDS011;2949;50.778;7.094;2024-01-25T11:52:30;16.03;;;4.23;;
5845;SDS011;2949;50.778;7.094;2024-01-25T11:54:58;25.73;;;5.23;;
5845;SDS011;2949;50.778;7.094;2024-01-25T11:57:31;34.57;;;5.50;;
5845;SDS011;2949;50.778;7.094;2024-01-25T12:00:02;22.53;;;4.80;;
5845;SDS011;2949;50.778;7.094;2024-01-25T12:02:32;22.27;;;5.10;;
5845;SDS011;2949;50.778;7.094;2024-01-25T12:04:58;25.03;;;4.73;;
5845;SDS011;2949;50.778;7.094;2024-01-25T12:07:24;26.00;;;5.37;;
5845;SDS011;2949;50.778;7.094;2024-01-25T12:09:57;28.93;;;4.63;;
5845;SDS011;2949;50.778;7.094;2024-01-25T12:12:30;21.50;;;4.20;;
5845;SDS011;2949;50.778;7.094;2024-01-25T12:14:59;29.20;;;5.00;;
5845;SDS011;2949;50.778;7.094;2024-01-25T12:17:32;31.77;;;4.80;;
5845;SDS011;2949;50.778;7.094;2024-01-25T12:19:59;35.40;;;4.93;;
5845;SDS011;2949;50.778;7.094;2024-01-25T12:22:28;17.73;;;3.70;;
5845;SDS011;2949;50.778;7.094;2024-01-25T12:24:55;20.70;;;4.13;;
5845;SDS011;2949;50.778;7.094;2024-01-25T12:27:22;19.50;;;4.07;;
5845;SDS011;2949;50.778;7.094;2024-01-25T12:29:53;27.53;;;4.47;;
5845;SDS011;2949;50.778;7.094;2024-01-25T12:32:21;21.43;;;4.03;;
5845;SDS011;2949;50.778;7.094;2024-01-25T12:34:54;27.20;;;4.63;;
5845;SDS011;2949;50.778;7.094;2024-01-25T12:37:25;19.50;;;4.70;;
5845;SDS011;2949;50.778;7.094;2024-01-25T12:39:52;27.60;;;4.70;;
5845;SDS011;2949;50.778;7.094;2024-01-25T12:42:19;27.77;;;4.27;;
5845;SDS011;2949;50.778;7.094;2024-01-25T12:44:45;20.33;;;3.33;;
5845;SDS011;2949;50.778;7.094;2024-01-25T12:47:11;20.77;;;3.53;;
5845;SDS011;2949;50.778;7.094;2024-01-25T12:49:41;27.53;;;3.77;;
5845;SDS011;2949;50.778;7.094;2024-01-25T12:52:08;20.73;;;4.60;;
5845;SDS011;2949;50.778;7.094;2024-01-25T12:54:34;21.80;;;4.23;;
5845;SDS011;2949;50.778;7.094;2024-01-25T12:57:01;16.30;;;4.00;;
5845;SDS011;2949;50.778;7.094;2024-01-25T12:59:27;30.97;;;3.53;;
5845;SDS011;2949;50.778;7.094;2024-01-25T13:01:52;35.10;;;4.17;;
5845;SDS011;2949;50.778;7.094;2024-01-25T13:04:18;25.03;;;4.13;;
5845;SDS011;2949;50.778;7.094;2024-01-25T13:06:46;21.10;;;4.07;;
5845;SDS011;2949;50.778;7.094;2024-01-25T13:09:12;26.03;;;4.63;;
5845;SDS011;2949;50.778;7.094;2024-01-25T13:11:39;25.70;;;3.97;;
5845;SDS011;2949;50.778;7.094;2024-01-25T13:14:09;24.27;;;4.27;;
5845;SDS011;2949;50.778;7.094;2024-01-25T13:16:34;21.50;;;4.43;;
5845;SDS011;2949;50.778;7.094;2024-01-25T13:19:00;21.13;;;3.97;;
5845;SDS011;2949;50.778;7.094;2024-01-25T13:21:26;34.80;;;4.20;;
5845;SDS011;2949;50.778;7.094;2024-01-25T13:23:51;22.07;;;4.13;;
5845;SDS011;2949;50.778;7.094;2024-01-25T13:26:17;27.13;;;4.40;;
5845;SDS011;2949;50.778;7.094;2024-01-25T13:28:43;25.03;;;5.13;;
5845;SDS011;2949;50.778;7.094;2024-01-25T13:31:08;24.97;;;4.80;;
5845;SDS011;2949;50.778;7.094;2024-01-25T13:33:34;22.53;;;4.00;;
5845;SDS011;2949;50.778;7.094;2024-01-25T13:36:00;17.10;;;3.90;;
5845;SDS011;2949;50.778;7.094;2024-01-25T13:38:25;28.50;;;4.90;;
5845;SDS011;2949;50.778;7.094;2024-01-25T13:40:51;27.23;;;4.17;;
5845;SDS011;2949;50.778;7.094;2024-01-25T13:43:17;21.60;;;4.43;;
5845;SDS011;2949;50.778;7.094;2024-01-25T13:45:43;15.53;;;4.00;;
5845;SDS011;2949;50.778;7.094;2024-01-25T13:48:09;27.80;;;4.30;;
5845;SDS011;2949;50.778;7.094;2024-01-25T13:50:34;21.53;;;4.10;;
5845;SDS011;2949;50.778;7.094;2024-01-25T13:53:00;24.20;;;4.00;;
5845;SDS011;2949;50.778;7.094;2024-01-25T13:55:25;25.87;;;5.10;;
5845;SDS011;2949;50.778;7.094;2024-01-25T13:57:52;17.53;;;3.57;;
5845;SDS011;2949;50.778;7.094;2024-01-25T14:00:18;23.73;;;4.33;;
5845;SDS011;2949;50.778;7.094;2024-01-25T14:02:43;18.77;;;3.80;;
5845;SDS011;2949;50.778;7.094;2024-01-25T14:05:10;18.00;;;4.17;;
5845;SDS011;2949;50.778;7.094;2024-01-25T14:07:37;18.20;;;4.00;;
5845;SDS011;2949;50.778;7.094;2024-01-25T14:10:02;33.87;;;4.10;;
5845;SDS011;2949;50.778;7.094;2024-01-25T14:12:28;22.17;;;4.43;;
5845;SDS011;2949;50.778;7.094;2024-01-25T14:14:54;27.27;;;3.97;;
5845;SDS011;2949;50.778;7.094;2024-01-25T14:17:20;22.70;;;4.33;;
5845;SDS011;2949;50.778;7.094;2024-01-25T14:19:46;22.60;;;4.70;;
5845;SDS011;2949;50.778;7.094;2024-01-25T14:22:13;21.73;;;5.03;;
5845;SDS011;2949;50.778;7.094;2024-01-25T14:24:38;17.93;;;3.93;;
5845;SDS011;2949;50.778;7.094;2024-01-25T14:27:04;24.03;;;4.63;;
5845;SDS011;2949;50.778;7.094;2024-01-25T14:29:30;16.10;;;3.73;;
5845;SDS011;2949;50.778;7.094;2024-01-25T14:31:58;23.40;;;3.83;;
5845;SDS011;2949;50.778;7.094;2024-01-25T14:34:24;29.63;;;4.67;;
5845;SDS011;2949;50.778;7.094;2024-01-25T14:36:50;21.07;;;3.67;;
5845;SDS011;2949;50.778;7.094;2024-01-25T14:39:16;22.97;;;4.47;;
5845;SDS011;2949;50.778;7.094;2024-01-25T14:41:45;35.00;;;4.37;;
5845;SDS011;2949;50.778;7.094;2024-01-25T14:44:11;22.37;;;4.10;;
5845;SDS011;2949;50.778;7.094;2024-01-25T14:46:37;23.60;;;4.87;;
5845;SDS011;2949;50.778;7.094;2024-01-25T14:49:03;21.20;;;5.50;;
5845;SDS011;2949;50.778;7.094;2024-01-25T14:51:29;21.17;;;4.30;;
5845;SDS011;2949;50.778;7.094;2024-01-25T14:53:54;25.80;;;4.90;;
5845;SDS011;2949;50.778;7.094;2024-01-25T14:56:20;23.77;;;5.03;;
5845;SDS011;2949;50.778;7.094;2024-01-25T14:58:46;18.33;;;4.23;;
5845;SDS011;2949;50.778;7.094;2024-01-25T15:01:12;27.43;;;5.30;;